Time;durP1;ratioP1;P1;durP2;ratioP2;P2;SDS_P1;SDS_P2;PMS_P1;PMS_P2;Temp;Humidity;BMP_temperature;BMP_pressure;BME280_temperature;BME280_humidity;BME280_pressure;Samples;Min_cycle;Max_cycle;Signal;HPM_P1;HPM_P2
2023/03/14 00:00:09;;;;;;;6.93;5.13;;;;;;;5.91;50.29;99968.97;5142283;28;20174;-54
2023/03/14 00:02:36;;;;;;;6.47;4.87;;;;;;;5.88;50.60;99968.84;5142173;28;20179;-53
2023/03/14 00:05:06;;;;;;;9.60;5.33;;;;;;;5.89;50.74;99962.94;5142257;28;20159;-54
2023/03/14 00:07:34;;;;;;;6.90;5.23;;;;;;;5.88;49.95;99966.28;5142140;28;20190;-54
2023/03/14 00:10:04;;;;;;;10.00;5.40;;;;;;;5.90;50.14;99964.72;5142031;28;20161;-53
2023/03/14 00:12:32;;;;;;;6.60;5.10;;;;;;;5.88;50.81;99948.44;5141980;28;20226;-54
2023/03/14 00:15:00;;;;;;;10.50;5.63;;;;;;;5.92;50.28;99960.53;5141887;28;20212;-55
2023/03/14 00:17:27;;;;;;;7.60;5.67;;;;;;;5.89;51.27;99945.97;5141997;28;20161;-55
2023/03/14 00:19:54;;;;;;;9.97;6.00;;;;;;;5.86;51.15;99956.03;5161805;27;20173;-55
2023/03/14 00:22:29;;;;;;;10.00;5.27;;;;;;;5.64;51.09;99919.34;5162534;27;20221;-54
2023/03/14 00:25:08;;;;;;;8.53;5.30;;;;;;;5.72;51.26;99943.47;5141356;28;20222;-54
2023/03/14 00:27:37;;;;;;;6.10;5.20;;;;;;;5.70;51.05;99937.44;5162098;27;20196;-52
2023/03/14 00:30:07;;;;;;;10.43;5.80;;;;;;;5.71;51.75;99939.22;5162403;27;20152;-52
2023/03/14 00:32:34;;;;;;;8.60;5.40;;;;;;;5.66;51.71;99933.06;5162083;27;20174;-52
2023/03/14 00:35:01;;;;;;;7.33;5.80;;;;;;;5.60;51.65;99930.22;5161787;27;20181;-54
2023/03/14 00:37:28;;;;;;;8.07;6.17;;;;;;;5.58;52.51;99922.50;5162270;27;20155;-54
2023/03/14 00:39:55;;;;;;;9.70;7.33;;;;;;;5.42;53.29;99906.50;5162169;27;20156;-52
2023/03/14 00:42:22;;;;;;;12.03;7.77;;;;;;;5.41;52.55;99914.97;5161568;27;20169;-54
2023/03/14 00:44:50;;;;;;;11.97;6.77;;;;;;;5.30;53.75;99917.06;5162019;27;20157;-53
2023/03/14 00:47:17;;;;;;;11.83;7.03;;;;;;;5.22;53.33;99915.81;5162038;27;20157;-52
2023/03/14 00:49:43;;;;;;;13.87;7.50;;;;;;;5.18;53.84;99904.66;5162025;27;20173;-52
2023/03/14 00:52:10;;;;;;;13.45;8.15;;;;;;;5.23;53.73;99898.06;5160973;27;20396;-52
2023/03/14 00:54:37;;;;;;;12.73;7.70;;;;;;;5.25;53.22;99899.00;5161905;27;20156;-52
2023/03/14 00:57:04;;;;;;;11.73;6.80;;;;;;;5.23;53.94;99902.28;5161911;27;20170;-52
2023/03/14 00:59:30;;;;;;;9.53;6.93;;;;;;;5.19;54.11;99891.09;5161888;27;20155;-52
2023/03/14 01:01:59;;;;;;;17.00;7.43;;;;;;;5.18;54.72;99897.00;5161873;27;20167;-54
2023/03/14 01:04:25;;;;;;;8.97;6.93;;;;;;;4.58;54.03;99808.63;5161705;27;20175;-54
2023/03/14 01:06:52;;;;;;;10.87;6.90;;;;;;;5.15;54.19;99889.22;5160901;27;20157;-52
2023/03/14 01:09:19;;;;;;;12.40;7.00;;;;;;;5.16;54.71;99885.88;5161665;27;20182;-53
2023/03/14 01:11:46;;;;;;;10.57;7.43;;;;;;;5.17;53.98;99879.97;5161661;27;20271;-52
2023/03/14 01:14:13;;;;;;;7.57;6.67;;;;;;;5.17;53.91;99874.00;5161696;27;20152;-53
2023/03/14 01:16:40;;;;;;;9.27;7.47;;;;;;;5.24;54.23;99871.81;5161568;27;20214;-53
2023/03/14 01:19:08;;;;;;;7.73;6.40;;;;;;;5.27;53.11;99871.06;5161550;27;20160;-52
2023/03/14 01:21:36;;;;;;;9.93;7.43;;;;;;;5.01;53.67;99824.09;5161566;27;20153;-52
2023/03/14 01:24:06;;;;;;;8.73;7.60;;;;;;;5.30;53.98;99876.28;5161613;27;20218;-53
2023/03/14 01:26:35;;;;;;;10.90;7.37;;;;;;;5.31;53.61;99862.72;5161533;27;20157;-53
2023/03/14 01:29:03;;;;;;;8.60;7.20;;;;;;;5.36;53.13;99868.88;5161391;27;20170;-51
2023/03/14 01:31:30;;;;;;;10.83;7.47;;;;;;;5.37;53.84;99865.53;5161392;27;20159;-51
2023/03/14 01:33:57;;;;;;;12.53;7.67;;;;;;;5.40;53.09;99878.41;5161383;27;20188;-53
2023/03/14 01:36:25;;;;;;;10.43;6.57;;;;;;;5.42;53.01;99865.72;5161272;27;20199;-53
2023/03/14 01:38:51;;;;;;;13.77;8.17;;;;;;;5.38;53.64;99861.31;5161193;27;20174;-53
2023/03/14 01:41:21;;;;;;;9.60;6.70;;;;;;;5.26;53.83;99851.47;5161146;27;20152;-52
2023/03/14 01:43:48;;;;;;;9.53;7.77;;;;;;;5.35;54.08;99862.06;5161182;27;20155;-53
2023/03/14 01:46:33;;;;;;;11.10;6.97;;;;;;;5.31;54.04;99862.72;5161171;27;20156;-52
2023/03/14 01:49:05;;;;;;;12.20;7.43;;;;;;;5.27;54.47;99856.63;5161053;27;20154;-52
2023/03/14 01:51:37;;;;;;;12.90;7.77;;;;;;;5.30;54.21;99861.00;5161146;28;20186;-53
2023/03/14 01:54:10;;;;;;;11.77;9.13;;;;;;;5.32;54.63;99857.72;5160197;28;20414;-52
2023/03/14 01:56:38;;;;;;;12.00;8.60;;;;;;;5.32;54.38;99850.06;5161002;28;20180;-51
2023/03/14 01:59:08;;;;;;;11.30;9.38;;;;;;;5.24;55.39;99853.09;5160237;28;20422;-53
2023/03/14 02:01:36;;;;;;;11.53;8.30;;;;;;;5.19;55.65;99852.03;5160998;27;20161;-53
2023/03/14 02:04:05;;;;;;;11.80;8.70;;;;;;;5.05;55.17;99830.19;5161018;28;20150;-53
2023/03/14 02:06:40;;;;;;;11.00;8.00;;;;;;;4.97;55.38;99823.91;5160924;28;20169;-52
2023/03/14 02:09:07;;;;;;;12.00;9.07;;;;;;;5.04;55.63;99836.06;5160957;27;20152;-52
2023/03/14 02:11:34;;;;;;;12.90;9.27;;;;;;;5.00;55.40;99847.78;5160840;27;20166;-53
2023/03/14 02:14:02;;;;;;;15.38;10.48;;;;;;;4.97;55.98;99834.94;5160521;28;20420;-53
2023/03/14 02:16:29;;;;;;;13.30;10.03;;;;;;;5.01;55.41;99847.00;5160753;28;20188;-54
2023/03/14 02:18:56;;;;;;;13.17;10.07;;;;;;;5.03;55.07;99837.75;5163375;27;20151;-53
2023/03/14 02:21:35;;;;;;;13.70;10.53;;;;;;;5.03;55.02;99840.28;5164980;27;20168;-53
2023/03/14 02:24:10;;;;;;;14.63;10.40;;;;;;;5.00;55.38;99829.97;5165044;27;20178;-53
2023/03/14 02:26:42;;;;;;;12.30;9.87;;;;;;;4.93;54.64;99834.75;5164769;27;20155;-51
2023/03/14 02:29:11;;;;;;;12.40;9.67;;;;;;;4.91;55.23;99829.59;5164385;27;20156;-53
2023/03/14 02:31:39;;;;;;;11.23;9.67;;;;;;;4.88;55.51;99837.09;5148893;27;20176;-53
2023/03/14 02:34:07;;;;;;;13.87;10.90;;;;;;;4.94;54.61;99839.91;5159815;27;20167;-52
2023/03/14 02:36:34;;;;;;;15.52;11.23;;;;;;;5.03;55.06;99840.28;5163596;27;20421;-53
2023/03/14 02:39:08;;;;;;;16.87;10.67;;;;;;;5.09;54.41;99839.69;5164511;27;20166;-52
2023/03/14 02:41:35;;;;;;;13.73;10.13;;;;;;;5.10;55.42;99836.34;5164500;27;20153;-51
2023/03/14 02:44:02;;;;;;;14.30;10.50;;;;;;;5.09;55.62;99834.59;5164406;27;20156;-53
2023/03/14 02:46:31;;;;;;;13.60;9.90;;;;;;;5.09;55.51;99835.47;5164408;27;20163;-54
2023/03/14 02:49:02;;;;;;;14.00;9.90;;;;;;;5.04;55.25;99836.97;5163823;27;20177;-52
2023/03/14 02:51:32;;;;;;;14.10;9.50;;;;;;;4.99;55.73;99840.97;5155632;27;20150;-54
2023/03/14 02:53:59;;;;;;;15.77;10.07;;;;;;;5.00;56.01;99840.16;5164327;27;20164;-51
2023/03/14 02:56:26;;;;;;;14.37;10.57;;;;;;;5.00;56.15;99854.59;5164213;27;20190;-54
2023/03/14 02:58:53;;;;;;;12.80;9.90;;;;;;;4.99;56.09;99847.75;5164180;27;20164;-54
2023/03/14 03:01:20;;;;;;;13.33;10.23;;;;;;;4.99;55.74;99848.63;5164155;27;20159;-54
2023/03/14 03:03:48;;;;;;;14.83;10.87;;;;;;;4.94;56.65;99845.00;5164063;27;20164;-53
2023/03/14 03:06:15;;;;;;;17.17;10.93;;;;;;;4.88;57.14;99849.81;5163946;27;20158;-53
2023/03/14 03:08:42;;;;;;;18.20;10.50;;;;;;;4.80;57.58;99853.72;5164004;27;20165;-53
2023/03/14 03:11:09;;;;;;;14.67;10.37;;;;;;;4.74;57.81;99854.31;5163991;27;20173;-52
2023/03/14 03:13:36;;;;;;;14.10;10.47;;;;;;;4.70;58.45;99859.16;5163934;27;20150;-52
2023/03/14 03:16:03;;;;;;;16.13;10.77;;;;;;;4.43;58.39;99812.13;5163754;27;20189;-53
2023/03/14 03:18:30;;;;;;;14.80;11.13;;;;;;;4.78;58.17;99851.91;5163801;27;20174;-53
2023/03/14 03:21:01;;;;;;;14.37;10.77;;;;;;;4.81;58.56;99857.97;5163788;27;20150;-53
2023/03/14 03:23:28;;;;;;;12.60;10.83;;;;;;;4.85;57.68;99859.00;5163745;27;20151;-50
2023/03/14 03:25:54;;;;;;;16.27;11.57;;;;;;;4.89;58.00;99846.47;5163636;27;20165;-52
2023/03/14 03:28:21;;;;;;;15.10;10.50;;;;;;;4.86;57.55;99851.44;5163381;27;20194;-53
2023/03/14 03:30:48;;;;;;;19.17;12.63;;;;;;;4.88;57.72;99848.94;5162721;27;20168;-53
2023/03/14 03:33:15;;;;;;;21.50;12.23;;;;;;;4.87;57.20;99842.97;5163480;27;20160;-53
2023/03/14 03:35:47;;;;;;;19.13;14.00;;;;;;;4.93;57.32;99848.34;5162476;27;20423;-53
2023/03/14 03:38:15;;;;;;;16.93;12.60;;;;;;;4.79;56.59;99818.88;5163359;27;20150;-53
2023/03/14 03:40:42;;;;;;;19.37;12.53;;;;;;;4.89;57.00;99851.53;5163272;27;20154;-52
2023/03/14 03:43:09;;;;;;;19.87;12.93;;;;;;;4.87;56.25;99844.66;5163225;27;20152;-53
2023/03/14 03:45:36;;;;;;;24.03;12.87;;;;;;;4.87;56.89;99850.63;5163154;27;20152;-53
2023/03/14 03:48:03;;;;;;;15.50;12.20;;;;;;;4.91;56.17;99846.53;5163053;27;20173;-53
2023/03/14 03:50:30;;;;;;;15.63;11.63;;;;;;;4.89;56.32;99851.53;5162973;27;20157;-52
2023/03/14 03:52:56;;;;;;;18.17;12.90;;;;;;;4.89;56.79;99850.69;5162905;27;20161;-53
2023/03/14 03:55:25;;;;;;;17.33;11.77;;;;;;;4.81;56.99;99849.50;5162927;27;20152;-52
2023/03/14 03:57:52;;;;;;;17.57;13.67;;;;;;;4.78;57.13;99846.81;5162934;27;20150;-53
2023/03/14 04:00:19;;;;;;;17.60;13.77;;;;;;;4.67;57.28;99836.13;5162900;27;20189;-53
2023/03/14 04:02:46;;;;;;;21.47;12.90;;;;;;;4.66;57.38;99839.50;5162874;27;20156;-53
2023/03/14 04:05:13;;;;;;;19.13;13.00;;;;;;;4.57;57.53;99832.31;5162750;27;20180;-53
2023/03/14 04:07:39;;;;;;;16.43;12.77;;;;;;;4.60;57.72;99826.50;5162660;27;20170;-52
2023/03/14 04:10:06;;;;;;;20.93;13.53;;;;;;;4.62;57.49;99823.22;5162589;27;20166;-53
2023/03/14 04:12:34;;;;;;;18.33;13.33;;;;;;;4.58;57.78;99823.00;5162551;27;20159;-52
2023/03/14 04:15:01;;;;;;;18.10;12.73;;;;;;;4.39;59.27;99821.31;5162445;27;20156;-53
2023/03/14 04:17:28;;;;;;;23.23;15.95;;;;;;;4.46;59.24;99825.88;5161484;27;20435;-53
2023/03/14 04:19:55;;;;;;;17.43;13.63;;;;;;;4.43;59.34;99823.19;5162360;27;20177;-52
2023/03/14 04:22:21;;;;;;;20.33;13.83;;;;;;;4.45;59.45;99820.72;5162302;27;20156;-52
2023/03/14 04:24:48;;;;;;;18.53;13.47;;;;;;;4.45;59.57;99813.09;5162228;27;20164;-52
2023/03/14 04:27:15;;;;;;;28.97;17.70;;;;;;;4.48;59.68;99816.63;5161929;27;20182;-53
2023/03/14 04:29:43;;;;;;;50.13;24.53;;;;;;;4.56;60.05;99819.53;5162007;27;20155;-52
2023/03/14 04:32:10;;;;;;;36.10;19.67;;;;;;;4.58;59.81;99812.84;5162014;27;20154;-52
2023/03/14 04:34:37;;;;;;;27.67;17.77;;;;;;;4.58;59.62;99807.75;5161983;27;20170;-53
2023/03/14 04:37:04;;;;;;;24.00;16.10;;;;;;;4.63;59.30;99808.81;5161813;27;20207;-53
2023/03/14 04:39:30;;;;;;;21.73;15.03;;;;;;;4.61;59.66;99813.84;5161909;27;20153;-53
2023/03/14 04:41:57;;;;;;;20.27;14.53;;;;;;;4.65;59.45;99807.19;5161705;27;20158;-53
2023/03/14 04:44:24;;;;;;;23.03;15.43;;;;;;;4.64;59.53;99808.88;5161851;27;20212;-52
2023/03/14 04:46:52;;;;;;;26.03;16.13;;;;;;;4.72;60.05;99814.31;5161602;27;20155;-52
2023/03/14 04:49:19;;;;;;;28.53;18.53;;;;;;;4.67;59.71;99805.59;5161730;27;20164;-53
2023/03/14 04:51:45;;;;;;;25.43;16.40;;;;;;;4.62;60.43;99804.50;5161668;27;20155;-52
2023/03/14 04:54:12;;;;;;;28.17;17.77;;;;;;;4.58;61.34;99813.72;5161364;27;20152;-52
2023/03/14 04:56:39;;;;;;;26.10;16.00;;;;;;;4.57;62.13;99817.03;5161797;27;20211;-52
2023/03/14 04:59:06;;;;;;;32.03;20.45;;;;;;;4.46;62.59;99807.19;5161641;27;20401;-52
2023/03/14 05:01:33;;;;;;;34.50;20.50;;;;;;;4.49;63.21;99818.38;5161620;27;20165;-52
2023/03/14 05:04:01;;;;;;;31.43;18.30;;;;;;;4.46;63.15;99820.78;5161405;27;20177;-52
2023/03/14 05:06:28;;;;;;;28.33;17.33;;;;;;;4.44;63.18;99821.50;5161420;27;20154;-53
2023/03/14 05:08:55;;;;;;;26.70;15.77;;;;;;;4.36;62.89;99821.19;5161593;27;20154;-53
2023/03/14 05:11:21;;;;;;;33.73;16.03;;;;;;;4.34;62.52;99835.47;5161295;27;20154;-53
2023/03/14 05:13:48;;;;;;;24.50;15.23;;;;;;;4.14;63.52;99834.56;5161067;27;20154;-53
2023/03/14 05:16:15;;;;;;;34.97;16.57;;;;;;;3.97;63.56;99839.66;5161065;27;20199;-54
2023/03/14 05:18:42;;;;;;;31.10;19.00;;;;;;;3.85;64.48;99833.97;5161291;27;20163;-54
2023/03/14 05:21:10;;;;;;;42.07;25.80;;;;;;;3.83;64.90;99841.53;5161315;27;20185;-53
2023/03/14 05:23:36;;;;;;;48.73;30.33;;;;;;;3.78;64.94;99843.00;5161159;27;20183;-53
2023/03/14 05:26:03;;;;;;;54.13;32.93;;;;;;;3.62;66.14;99845.59;5161039;27;20156;-54
2023/03/14 05:28:30;;;;;;;51.57;36.97;;;;;;;3.56;67.17;99850.34;5160924;27;20195;-53
2023/03/14 05:30:57;;;;;;;61.93;37.93;;;;;;;3.68;66.88;99848.41;5161030;27;20176;-53
2023/03/14 05:33:23;;;;;;;54.43;36.83;;;;;;;3.72;66.58;99841.81;5160921;27;20150;-53
2023/03/14 05:35:50;;;;;;;62.10;32.43;;;;;;;3.72;66.58;99847.75;5160746;27;20154;-53
2023/03/14 05:38:19;;;;;;;44.77;29.87;;;;;;;3.71;66.03;99851.09;5160862;27;20184;-52
2023/03/14 05:40:46;;;;;;;45.97;26.40;;;;;;;3.72;65.39;99836.72;5161009;27;20180;-52
2023/03/14 05:43:14;;;;;;;28.73;22.07;;;;;;;3.83;64.91;99849.16;5160938;27;20165;-54
2023/03/14 05:45:42;;;;;;;39.17;21.03;;;;;;;3.77;64.41;99838.69;5160804;27;20157;-53
2023/03/14 05:48:09;;;;;;;42.57;22.20;;;;;;;3.89;64.34;99836.75;5160793;27;20162;-52
2023/03/14 05:50:36;;;;;;;40.50;22.33;;;;;;;4.01;63.50;99846.63;5160396;27;20154;-52
2023/03/14 05:53:03;;;;;;;31.87;21.80;;;;;;;4.09;62.69;99846.16;5160087;27;20154;-52
2023/03/14 05:55:31;;;;;;;33.67;21.17;;;;;;;4.11;62.29;99838.63;5160433;28;20225;-52
2023/03/14 05:57:58;;;;;;;36.17;20.73;;;;;;;4.18;62.21;99846.63;5160251;28;20186;-52
2023/03/14 06:00:25;;;;;;;37.33;20.70;;;;;;;4.18;62.24;99844.06;5160389;27;20217;-53
2023/03/14 06:02:51;;;;;;;28.50;19.73;;;;;;;4.28;61.63;99845.38;5160452;28;20155;-53
2023/03/14 06:05:18;;;;;;;25.07;18.60;;;;;;;4.25;61.81;99852.88;5160485;28;20154;-53
2023/03/14 06:07:45;;;;;;;28.87;19.67;;;;;;;4.34;61.30;99843.09;5160383;28;20158;-52
2023/03/14 06:10:12;;;;;;;28.63;19.30;;;;;;;4.53;61.58;99849.94;5160289;28;20164;-53
2023/03/14 06:12:40;;;;;;;29.73;18.43;;;;;;;4.60;60.75;99844.31;5160057;28;20210;-52
2023/03/14 06:15:08;;;;;;;25.03;18.03;;;;;;;4.75;60.09;99842.47;5159744;28;20150;-53
2023/03/14 06:17:35;;;;;;;24.13;17.87;;;;;;;4.76;59.68;99836.53;5159588;28;20184;-53
2023/03/14 06:20:02;;;;;;;28.60;17.97;;;;;;;4.82;58.96;99839.38;5160271;28;20154;-53
2023/03/14 06:22:29;;;;;;;21.87;16.63;;;;;;;4.86;59.35;99837.84;5160173;27;20158;-53
2023/03/14 06:24:55;;;;;;;28.27;18.03;;;;;;;4.90;58.84;99832.94;5159860;27;20166;-52
2023/03/14 06:27:22;;;;;;;30.80;18.90;;;;;;;4.93;58.85;99822.88;5159907;28;20191;-53
2023/03/14 06:29:50;;;;;;;27.53;19.10;;;;;;;5.01;59.17;99824.09;5160067;27;20154;-52
2023/03/14 06:32:17;;;;;;;29.47;18.63;;;;;;;5.08;59.14;99822.69;5149952;28;20174;-54
2023/03/14 06:34:44;;;;;;;24.23;17.77;;;;;;;4.75;58.63;99806.81;5153356;27;20240;-54
2023/03/14 06:37:11;;;;;;;28.50;18.07;;;;;;;4.91;59.61;99823.63;5156943;28;20187;-54
2023/03/14 06:39:38;;;;;;;24.07;17.07;;;;;;;5.09;58.93;99829.50;5159954;27;20157;-54
2023/03/14 06:42:05;;;;;;;30.07;17.20;;;;;;;5.08;59.01;99818.44;5142187;27;20162;-53
2023/03/14 06:44:32;;;;;;;28.77;17.17;;;;;;;5.30;58.65;99833.00;5139112;28;20179;-53
2023/03/14 06:47:00;;;;;;;33.27;17.90;;;;;;;5.46;57.70;99835.38;5138783;28;20159;-53
2023/03/14 06:49:27;;;;;;;26.03;16.53;;;;;;;5.52;58.01;99832.19;5152919;27;20180;-53
2023/03/14 06:51:54;;;;;;;34.47;16.60;;;;;;;5.42;57.98;99830.94;5159740;28;20154;-54
2023/03/14 06:54:20;;;;;;;31.03;17.67;;;;;;;5.41;58.79;99829.22;5159589;27;20174;-53
2023/03/14 06:56:47;;;;;;;26.67;16.73;;;;;;;5.53;58.49;99823.72;5159295;27;20192;-54
2023/03/14 06:59:14;;;;;;;22.53;16.33;;;;;;;5.62;57.32;99816.47;5151036;28;20173;-54
2023/03/14 07:01:41;;;;;;;27.03;16.93;;;;;;;5.75;57.26;99811.06;5139209;28;20429;-54
2023/03/14 07:04:10;;;;;;;19.80;16.00;;;;;;;5.77;57.05;99807.75;5139272;28;20158;-53
2023/03/14 07:06:38;;;;;;;28.47;16.67;;;;;;;5.79;57.50;99805.28;5144930;27;20172;-53
2023/03/14 07:09:04;;;;;;;21.50;15.67;;;;;;;5.89;57.74;99809.97;5163555;27;20195;-54
2023/03/14 07:11:31;;;;;;;20.13;14.73;;;;;;;6.00;56.85;99805.28;5163758;27;20156;-54
2023/03/14 07:13:58;;;;;;;20.63;14.17;;;;;;;6.08;55.95;99796.25;5163598;27;20190;-54
2023/03/14 07:16:28;;;;;;;18.43;14.17;;;;;;;6.09;55.68;99793.75;5163307;27;20157;-54
2023/03/14 07:18:55;;;;;;;20.50;14.07;;;;;;;6.23;55.61;99787.50;5163398;27;20154;-54
2023/03/14 07:21:23;;;;;;;23.27;16.00;;;;;;;6.27;54.27;99788.47;5162848;27;20389;-53
2023/03/14 07:23:49;;;;;;;22.23;13.53;;;;;;;6.36;54.10;99779.50;5163469;27;20155;-53
2023/03/14 07:26:16;;;;;;;23.03;15.07;;;;;;;6.53;54.45;99782.69;5163326;27;20163;-53
2023/03/14 07:28:43;;;;;;;19.30;13.90;;;;;;;6.67;53.69;99785.72;5162933;27;20264;-53
2023/03/14 07:31:10;;;;;;;17.17;14.50;;;;;;;6.76;52.25;99775.81;5163279;27;20163;-54
2023/03/14 07:33:37;;;;;;;25.80;15.37;;;;;;;6.85;52.84;99781.25;5160358;27;20172;-53
2023/03/14 07:36:05;;;;;;;21.47;15.73;;;;;;;7.28;53.91;99774.25;5156518;27;20163;-53
2023/03/14 07:38:33;;;;;;;22.20;15.13;;;;;;;7.24;51.28;99774.09;5162812;27;20209;-53
2023/03/14 07:41:01;;;;;;;20.67;15.50;;;;;;;7.04;50.50;99781.09;5156119;27;20173;-52
2023/03/14 07:43:28;;;;;;;24.73;15.57;;;;;;;6.81;51.00;99759.00;5155124;27;20234;-53
2023/03/14 07:45:55;;;;;;;21.90;14.93;;;;;;;7.08;50.84;99770.19;5161647;27;20161;-53
2023/03/14 07:48:24;;;;;;;23.73;15.98;;;;;;;7.13;48.83;99772.06;5161456;27;20400;-53
2023/03/14 07:50:52;;;;;;;22.33;14.90;;;;;;;7.11;48.80;99768.56;5162622;27;20170;-53
2023/03/14 07:53:19;;;;;;;19.50;14.00;;;;;;;7.05;48.94;99757.28;5161048;27;20202;-53
2023/03/14 07:55:47;;;;;;;20.80;15.03;;;;;;;7.05;49.53;99724.09;5162796;27;20175;-53
2023/03/14 07:58:14;;;;;;;20.27;15.00;;;;;;;7.30;49.39;99759.88;5162334;27;20185;-53
2023/03/14 08:00:41;;;;;;;27.37;14.00;;;;;;;7.30;49.06;99764.09;5158879;27;20175;-53
2023/03/14 08:03:08;;;;;;;17.63;14.37;;;;;;;7.27;49.73;99764.00;5161947;27;20177;-53
2023/03/14 08:05:35;;;;;;;18.63;14.23;;;;;;;7.39;48.86;99751.63;5162240;27;20160;-54
2023/03/14 08:08:02;;;;;;;20.63;14.90;;;;;;;7.56;48.86;99758.13;5162109;27;20160;-53
2023/03/14 08:10:29;;;;;;;15.10;12.37;;;;;;;7.64;49.44;99741.34;5162365;27;20224;-53
2023/03/14 08:12:59;;;;;;;17.40;12.73;;;;;;;7.75;48.95;99746.84;5161410;27;20169;-54
2023/03/14 08:15:27;;;;;;;17.90;11.87;;;;;;;7.39;49.55;99743.97;5159480;27;20172;-53
2023/03/14 08:17:54;;;;;;;16.67;10.77;;;;;;;7.28;50.05;99740.19;5153907;27;20189;-53
2023/03/14 08:20:21;;;;;;;15.53;10.67;;;;;;;7.44;50.08;99740.75;5157556;27;20178;-53
2023/03/14 08:22:48;;;;;;;15.00;11.07;;;;;;;7.65;49.70;99746.53;5161902;27;20153;-53
2023/03/14 08:25:16;;;;;;;14.87;10.57;;;;;;;7.65;48.65;99736.31;5161520;27;20214;-53
2023/03/14 08:27:43;;;;;;;12.80;11.43;;;;;;;7.53;49.23;99728.22;5161564;27;20181;-53
2023/03/14 08:30:13;;;;;;;13.77;11.13;;;;;;;7.72;48.38;99737.34;5161674;27;20154;-53
2023/03/14 08:32:40;;;;;;;16.70;11.93;;;;;;;7.79;48.57;99736.72;5161696;27;20162;-53
2023/03/14 08:35:08;;;;;;;15.63;9.80;;;;;;;7.71;48.15;99733.94;5159160;27;20158;-55
2023/03/14 08:37:36;;;;;;;14.83;10.30;;;;;;;7.92;48.02;99730.28;5161465;27;20181;-53
2023/03/14 08:40:06;;;;;;;16.60;12.50;;;;;;;8.09;47.00;99727.41;5158615;27;20218;-54
2023/03/14 08:42:33;;;;;;;16.10;11.27;;;;;;;8.30;45.60;99724.63;5153275;27;20208;-53
2023/03/14 08:45:00;;;;;;;16.53;11.10;;;;;;;8.34;45.38;99721.34;5159803;27;20162;-53
2023/03/14 08:47:28;;;;;;;15.83;11.80;;;;;;;8.48;45.97;99712.38;5161536;27;20150;-60
2023/03/14 08:49:55;;;;;;;14.65;10.35;;;;;;;8.61;45.59;99711.88;5161456;27;20401;-58
2023/03/14 08:52:22;;;;;;;15.47;11.20;;;;;;;8.66;44.82;99706.88;5161035;27;20160;-59
2023/03/14 08:54:49;;;;;;;16.93;10.37;;;;;;;8.70;45.22;99698.47;5160876;27;20162;-55
2023/03/14 08:57:16;;;;;;;15.37;10.13;;;;;;;8.76;44.77;99691.78;5160696;27;20200;-53
2023/03/14 08:59:43;;;;;;;11.90;10.10;;;;;;;8.75;44.16;99686.63;5158265;27;20183;-52
2023/03/14 09:02:12;;;;;;;13.00;9.77;;;;;;;8.66;43.64;99676.13;5160961;27;20190;-53
2023/03/14 09:04:40;;;;;;;16.70;11.30;;;;;;;8.72;44.01;99673.75;5160351;27;20429;-53
2023/03/14 09:07:07;;;;;;;12.27;10.90;;;;;;;8.95;43.57;99670.09;5160839;27;20150;-53
2023/03/14 09:09:34;;;;;;;15.55;10.48;;;;;;;9.01;43.29;99662.53;5160723;27;20438;-53
2023/03/14 09:12:00;;;;;;;11.83;9.37;;;;;;;8.94;43.21;99645.28;5157656;27;20166;-53
2023/03/14 09:14:27;;;;;;;16.10;10.17;;;;;;;9.17;42.20;99659.56;5157860;27;20165;-53
2023/03/14 09:16:54;;;;;;;14.43;9.80;;;;;;;9.09;41.98;99655.06;5160804;27;20188;-54
2023/03/14 09:19:21;;;;;;;12.07;9.47;;;;;;;8.90;42.39;99646.91;5160056;27;20184;-53
2023/03/14 09:21:49;;;;;;;12.57;9.43;;;;;;;9.17;42.12;99643.28;5157897;27;20150;-54
2023/03/14 09:24:16;;;;;;;11.80;8.77;;;;;;;9.40;41.81;99648.13;5160593;27;20151;-53
2023/03/14 09:26:43;;;;;;;13.57;8.87;;;;;;;9.37;40.97;99627.53;5160147;27;20152;-53
2023/03/14 09:29:10;;;;;;;11.63;9.00;;;;;;;9.58;40.64;99624.59;5159839;27;20164;-53
2023/03/14 09:31:37;;;;;;;10.87;9.40;;;;;;;9.72;40.40;99618.09;5160591;27;20154;-54
2023/03/14 09:34:04;;;;;;;14.30;8.57;;;;;;;9.80;39.79;99616.53;5159185;27;20176;-53
2023/03/14 09:36:31;;;;;;;12.27;7.80;;;;;;;9.62;39.36;99620.38;5156250;27;20233;-54
2023/03/14 09:38:59;;;;;;;10.93;7.87;;;;;;;9.70;39.59;99613.72;5158721;27;20189;-53
2023/03/14 09:41:31;;;;;;;10.13;7.57;;;;;;;9.59;39.38;99613.50;5158521;27;20223;-54
2023/03/14 09:44:04;;;;;;;11.03;6.93;;;;;;;9.71;38.93;99603.50;5154550;27;20187;-54
2023/03/14 09:46:32;;;;;;;10.33;7.70;;;;;;;9.89;38.92;99609.00;5158508;27;20162;-54
2023/03/14 09:49:00;;;;;;;11.27;7.40;;;;;;;10.07;38.99;99595.69;5159839;27;20150;-53
2023/03/14 09:51:28;;;;;;;10.10;7.50;;;;;;;9.69;39.49;99566.69;5167049;27;20150;-54
2023/03/14 09:53:54;;;;;;;10.47;7.77;;;;;;;9.78;39.37;99600.22;5159870;27;20166;-54
2023/03/14 09:56:26;;;;;;;9.90;7.00;;;;;;;9.85;39.48;99586.69;5159602;28;20165;-53
2023/03/14 09:58:56;;;;;;;12.00;8.10;;;;;;;10.01;39.26;99596.44;5159809;27;20197;-53
2023/03/14 10:01:26;;;;;;;8.73;7.57;;;;;;;10.10;38.74;99593.19;5160185;27;20202;-52
2023/03/14 10:03:57;;;;;;;10.20;7.67;;;;;;;10.17;39.18;99586.50;5160069;28;20187;-53
2023/03/14 10:06:26;;;;;;;8.03;7.13;;;;;;;10.30;39.14;99586.75;5159666;27;20160;-53
2023/03/14 10:08:55;;;;;;;9.83;7.50;;;;;;;10.20;38.87;99579.72;5159294;28;20183;-54
2023/03/14 10:11:24;;;;;;;10.43;7.63;;;;;;;9.94;39.05;99543.25;5158809;28;20406;-53
2023/03/14 10:14:04;;;;;;;11.17;7.33;;;;;;;10.23;39.14;99542.97;5153036;28;20166;-53
2023/03/14 10:16:33;;;;;;;10.00;6.57;;;;;;;10.47;38.26;99558.81;5159194;28;20173;-54
2023/03/14 10:19:05;;;;;;;9.07;6.27;;;;;;;10.50;38.17;99556.28;5159425;28;20186;-54
2023/03/14 10:21:36;;;;;;;8.67;7.67;;;;;;;10.44;38.82;99545.91;5159740;27;20165;-54
2023/03/14 10:24:11;;;;;;;14.30;7.40;;;;;;;10.59;39.07;99534.22;5159790;27;20170;-54
2023/03/14 10:26:39;;;;;;;7.00;6.30;;;;;;;10.62;38.75;99528.25;5151094;28;20192;-53
2023/03/14 10:29:12;;;;;;;11.37;7.83;;;;;;;10.80;39.15;99520.81;5152930;27;20166;-53
2023/03/14 10:31:48;;;;;;;9.97;8.03;;;;;;;11.01;39.20;99518.59;5158554;28;20173;-54
2023/03/14 10:34:18;;;;;;;8.43;6.87;;;;;;;11.18;38.75;99519.69;5159123;28;20176;-53
2023/03/14 10:36:45;;;;;;;11.00;7.47;;;;;;;11.19;38.46;99512.84;5159849;27;20154;-53
2023/03/14 10:39:27;;;;;;;10.30;7.00;;;;;;;11.03;38.63;99474.91;5160917;27;20200;-54
2023/03/14 10:42:02;;;;;;;10.97;7.23;;;;;;;11.32;38.19;99498.47;5142589;27;20186;-54
2023/03/14 10:44:30;;;;;;;12.20;7.17;;;;;;;11.40;38.57;99482.25;5143340;27;20172;-55
2023/03/14 10:47:00;;;;;;;9.50;7.50;;;;;;;11.23;38.87;99483.75;5144651;27;20180;-54
2023/03/14 10:49:30;;;;;;;10.63;7.50;;;;;;;11.30;38.85;99470.13;5151934;27;20442;-54
2023/03/14 10:52:01;;;;;;;9.87;7.67;;;;;;;11.43;38.24;99481.41;5142654;28;20196;-54
2023/03/14 10:54:31;;;;;;;11.80;7.37;;;;;;;11.35;38.35;99468.47;5148232;27;20154;-53
2023/03/14 10:57:00;;;;;;;9.40;7.00;;;;;;;11.26;38.40;99464.06;5150119;27;20190;-53
2023/03/14 10:59:30;;;;;;;8.17;6.70;;;;;;;11.27;37.95;99462.38;5142565;28;20182;-53
2023/03/14 11:02:04;;;;;;;8.40;6.77;;;;;;;11.34;38.35;99459.03;5142930;28;20177;-54
2023/03/14 11:04:56;;;;;;;10.23;7.47;;;;;;;11.55;37.42;99441.28;5141405;28;20406;-52
2023/03/14 11:07:30;;;;;;;7.27;6.43;;;;;;;11.74;37.03;99417.50;5142830;28;20163;-53
2023/03/14 11:10:01;;;;;;;8.13;7.17;;;;;;;11.97;36.71;99422.88;5142831;28;20155;-53
2023/03/14 11:12:44;;;;;;;10.97;7.33;;;;;;;12.18;36.04;99423.06;5142703;28;20159;-54
2023/03/14 11:15:21;;;;;;;8.03;5.70;;;;;;;12.18;36.26;99419.63;5151587;27;20174;-53
2023/03/14 11:17:58;;;;;;;7.23;6.17;;;;;;;12.08;36.46;99407.53;5142026;28;20155;-53
2023/03/14 11:20:36;;;;;;;9.77;6.70;;;;;;;12.02;36.97;99400.63;5142210;28;20162;-53
2023/03/14 11:23:11;;;;;;;8.40;6.63;;;;;;;12.03;36.88;99392.03;5142278;28;20218;-53
2023/03/14 11:25:46;;;;;;;10.63;8.03;;;;;;;12.20;36.79;99382.72;5142067;27;20166;-53
2023/03/14 11:28:23;;;;;;;8.83;6.37;;;;;;;12.48;36.30;99364.88;5152782;27;20213;-54
2023/03/14 11:30:53;;;;;;;8.47;5.33;;;;;;;12.67;35.90;99359.84;5143939;27;20178;-54
2023/03/14 11:33:26;;;;;;;9.40;5.93;;;;;;;12.61;35.56;99344.34;5151931;27;20186;-54